Time;durP1;ratioP1;P1;durP2;ratioP2;P2;SDS_P1;SDS_P2;PMS_P1;PMS_P2;Temp;Humidity;BMP_temperature;BMP_pressure;BME280_temperature;BME280_humidity;BME280_pressure;Samples;Min_cycle;Max_cycle;Signal;HPM_P1;HPM_P2
2021/04/01 00:01:32;;;;;;;11.45;6.15;;;;;;;10.90;58.17;96623.84;5114424;28;20127;-66
2021/04/01 00:03:59;;;;;;;13.55;6.18;;;;;;;10.89;58.04;96619.50;5113549;28;20043;-66
2021/04/01 00:06:25;;;;;;;12.07;5.15;;;;;;;10.87;58.02;96618.22;5114225;28;20059;-66
2021/04/01 00:08:51;;;;;;;9.48;5.63;;;;;;;10.85;58.12;96620.44;5113384;28;20114;-66
2021/04/01 00:11:17;;;;;;;12.57;5.53;;;;;;;10.83;58.12;96612.59;5113777;28;20055;-66
2021/04/01 00:13:43;;;;;;;12.18;5.22;;;;;;;10.83;57.71;96611.78;5113786;28;20047;-67
2021/04/01 00:16:09;;;;;;;10.90;5.20;;;;;;;10.80;57.55;96607.75;5113477;28;20543;-67
2021/04/01 00:18:36;;;;;;;10.18;4.85;;;;;;;10.77;57.71;96613.06;5113068;28;20039;-66
2021/04/01 00:21:03;;;;;;;9.75;5.00;;;;;;;10.75;57.29;96615.28;5112895;28;20048;-67
2021/04/01 00:23:29;;;;;;;14.38;4.90;;;;;;;10.76;57.24;96601.34;5114186;28;20051;-66
2021/04/01 00:25:56;;;;;;;12.60;4.80;;;;;;;10.76;57.17;96606.00;5112715;28;20040;-66
2021/04/01 00:28:21;;;;;;;8.77;4.45;;;;;;;10.73;56.79;96601.16;5119990;27;20047;-67
2021/04/01 00:30:47;;;;;;;9.60;5.07;;;;;;;10.70;56.77;96603.41;5112988;28;20044;-66
2021/04/01 00:33:13;;;;;;;13.65;5.38;;;;;;;10.67;57.04;96606.75;5113651;28;20116;-67
2021/04/01 00:35:39;;;;;;;9.13;4.80;;;;;;;10.67;57.11;96609.47;5112962;28;20043;-66
2021/04/01 00:38:06;;;;;;;11.18;4.63;;;;;;;10.68;56.89;96599.38;5113061;28;20407;-67
2021/04/01 00:40:32;;;;;;;14.07;4.90;;;;;;;10.69;56.66;96596.34;5113316;28;20042;-66
2021/04/01 00:42:58;;;;;;;10.18;4.30;;;;;;;10.68;56.47;96602.09;5113181;28;20043;-66
2021/04/01 00:45:24;;;;;;;8.02;4.65;;;;;;;10.66;56.75;96607.88;5113056;28;20039;-66
2021/04/01 00:47:52;;;;;;;7.65;4.18;;;;;;;10.63;56.60;96596.78;5112470;28;20040;-66
2021/04/01 00:50:21;;;;;;;11.82;4.32;;;;;;;10.58;56.81;96600.44;5112623;28;20092;-66
2021/04/01 00:52:47;;;;;;;9.35;4.88;;;;;;;10.57;57.16;96609.72;5112521;28;20039;-66
2021/04/01 00:55:14;;;;;;;12.70;4.53;;;;;;;10.52;56.94;96604.41;5113408;28;20035;-67
2021/04/01 00:57:43;;;;;;;11.55;4.68;;;;;;;10.44;57.11;96599.75;5124235;27;20048;-66
2021/04/01 01:00:13;;;;;;;7.80;4.65;;;;;;;10.39;57.71;96597.13;5112942;28;20260;-67
2021/04/01 01:02:39;;;;;;;11.18;4.53;;;;;;;10.37;57.75;96593.91;5113467;28;20104;-66
2021/04/01 01:05:08;;;;;;;9.02;4.53;;;;;;;10.35;58.32;96593.44;5112375;28;20398;-67
2021/04/01 01:07:34;;;;;;;11.50;5.03;;;;;;;10.33;58.42;96590.19;5113125;28;20044;-66
2021/04/01 01:10:01;;;;;;;11.73;5.35;;;;;;;10.26;58.85;96595.28;5112364;28;20051;-66
2021/04/01 01:12:27;;;;;;;11.90;4.82;;;;;;;10.19;59.04;96592.97;5113024;28;20044;-66
2021/04/01 01:14:54;;;;;;;13.43;5.70;;;;;;;10.18;58.68;96603.06;5112085;28;20502;-66
2021/04/01 01:17:20;;;;;;;16.83;5.15;;;;;;;10.22;59.01;96594.25;5112779;28;20044;-66
2021/04/01 01:19:51;;;;;;;11.20;5.28;;;;;;;10.23;58.43;96593.13;5111420;28;20097;-66
2021/04/01 01:22:18;;;;;;;12.30;5.13;;;;;;;10.22;58.83;96586.09;5112483;28;20051;-66
2021/04/01 01:24:45;;;;;;;7.50;4.53;;;;;;;10.22;58.61;96577.91;5132332;27;20406;-66
2021/04/01 01:27:11;;;;;;;10.25;4.72;;;;;;;10.20;58.64;96581.75;5128492;27;20093;-66
2021/04/01 01:29:38;;;;;;;9.75;4.75;;;;;;;10.17;58.71;96585.09;5112758;28;20098;-66
2021/04/01 01:32:05;;;;;;;9.30;4.95;;;;;;;10.15;58.72;96586.53;5111571;28;20047;-66
2021/04/01 01:34:35;;;;;;;6.97;4.35;;;;;;;10.12;58.88;96581.69;5112621;28;20048;-66
2021/04/01 01:37:02;;;;;;;11.25;5.38;;;;;;;10.10;59.13;96584.72;5111697;28;20044;-66
2021/04/01 01:39:28;;;;;;;10.90;4.95;;;;;;;10.07;59.23;96579.91;5112591;28;20039;-66
2021/04/01 01:41:55;;;;;;;9.90;5.30;;;;;;;10.06;58.79;96581.00;5111725;28;20043;-66
2021/04/01 01:44:21;;;;;;;10.85;4.75;;;;;;;10.03;58.77;96578.13;5112015;28;20040;-66
2021/04/01 01:46:47;;;;;;;14.82;4.80;;;;;;;10.00;58.74;96579.53;5111787;28;20043;-66
2021/04/01 01:49:13;;;;;;;8.13;5.13;;;;;;;9.96;58.84;96570.38;5111076;27;20082;-67
2021/04/01 01:51:39;;;;;;;9.00;4.35;;;;;;;9.92;59.28;96569.41;5112000;28;20044;-66
2021/04/01 01:54:05;;;;;;;13.20;5.40;;;;;;;9.90;59.07;96568.88;5111471;28;20067;-67
2021/04/01 01:56:32;;;;;;;11.25;4.50;;;;;;;9.89;59.31;96567.28;5132720;27;20103;-66
2021/04/01 01:58:59;;;;;;;11.13;4.68;;;;;;;9.86;59.18;96571.41;5112258;28;20448;-66
2021/04/01 02:01:26;;;;;;;8.43;4.63;;;;;;;9.83;59.62;96568.53;5110927;28;20044;-66
2021/04/01 02:03:53;;;;;;;10.55;4.68;;;;;;;9.80;59.62;96567.22;5111102;28;20122;-66
2021/04/01 02:06:20;;;;;;;7.85;4.75;;;;;;;9.79;59.96;96556.66;5111882;28;20047;-66
2021/04/01 02:08:48;;;;;;;9.20;4.30;;;;;;;9.79;60.19;96562.88;5110849;28;20042;-66
2021/04/01 02:11:15;;;;;;;11.30;4.78;;;;;;;9.77;59.75;96558.88;5111431;28;20543;-66
2021/04/01 02:13:41;;;;;;;10.02;4.55;;;;;;;9.78;60.24;96555.84;5111330;28;20109;-66
2021/04/01 02:16:08;;;;;;;9.82;4.63;;;;;;;9.79;59.42;96559.38;5111028;28;20038;-66
2021/04/01 02:18:34;;;;;;;10.82;4.65;;;;;;;9.78;59.37;96564.00;5111078;28;20047;-66
2021/04/01 02:21:01;;;;;;;9.00;4.60;;;;;;;9.76;59.59;96551.81;5111120;28;20413;-66
2021/04/01 02:23:29;;;;;;;12.15;4.78;;;;;;;9.73;59.80;96558.69;5111518;28;20036;-66
2021/04/01 02:25:56;;;;;;;11.40;4.85;;;;;;;9.70;60.00;96553.03;5110532;28;20039;-66
2021/04/01 02:28:25;;;;;;;10.00;4.88;;;;;;;9.66;59.98;96553.69;5111300;28;20490;-66
2021/04/01 02:30:53;;;;;;;11.95;5.43;;;;;;;9.62;60.14;96552.69;5110704;28;20060;-66
2021/04/01 02:33:21;;;;;;;14.02;5.55;;;;;;;9.61;60.08;96555.72;5111271;28;20047;-66
2021/04/01 02:35:47;;;;;;;9.50;3.95;;;;;;;9.59;59.68;96556.00;5110752;28;20411;-66
2021/04/01 02:38:13;;;;;;;13.20;4.13;;;;;;;9.59;60.14;96557.91;5110601;28;20051;-66
2021/04/01 02:40:40;;;;;;;9.63;4.35;;;;;;;9.56;60.00;96556.63;5111072;28;20043;-66
2021/04/01 02:43:08;;;;;;;8.95;4.93;;;;;;;9.56;59.89;96559.34;5110245;28;20077;-66
2021/04/01 02:45:34;;;;;;;12.20;4.85;;;;;;;9.55;59.73;96555.03;5111522;28;20044;-66
2021/04/01 02:48:01;;;;;;;14.45;5.55;;;;;;;9.52;59.47;96547.47;5110144;28;20047;-66
2021/04/01 02:50:28;;;;;;;8.00;4.10;;;;;;;9.50;59.78;96544.25;5110488;28;20121;-66
2021/04/01 02:52:55;;;;;;;11.18;4.43;;;;;;;9.47;59.59;96544.06;5110210;28;20047;-66
2021/04/01 02:55:21;;;;;;;12.45;4.70;;;;;;;9.45;59.66;96536.22;5110886;28;20043;-66
2021/04/01 02:57:47;;;;;;;10.80;4.90;;;;;;;9.41;59.83;96540.66;5110260;28;20406;-66
2021/04/01 03:00:17;;;;;;;10.32;4.38;;;;;;;9.40;60.01;96539.06;5110483;28;20048;-66
2021/04/01 03:02:46;;;;;;;9.73;4.13;;;;;;;9.39;60.19;96542.84;5110412;28;20051;-66
2021/04/01 03:05:12;;;;;;;9.30;3.90;;;;;;;9.37;60.11;96537.72;5110133;28;20036;-66
2021/04/01 03:07:40;;;;;;;8.75;4.20;;;;;;;9.38;60.32;96535.81;5110716;28;20650;-66
2021/04/01 03:10:08;;;;;;;8.45;4.45;;;;;;;9.38;60.60;96533.91;5109746;28;20040;-66
2021/04/01 03:12:35;;;;;;;11.32;5.72;;;;;;;9.38;60.76;96535.81;5110868;28;20101;-66
2021/04/01 03:15:01;;;;;;;9.20;4.78;;;;;;;9.42;60.78;96531.38;5109702;28;20469;-66
2021/04/01 03:17:27;;;;;;;12.30;5.32;;;;;;;9.39;60.84;96531.97;5110825;28;20093;-66
2021/04/01 03:19:53;;;;;;;13.82;4.60;;;;;;;9.39;60.80;96532.78;5109313;28;20036;-66
2021/04/01 03:22:19;;;;;;;9.65;3.80;;;;;;;9.39;61.03;96531.97;5110347;28;20490;-66
2021/04/01 03:24:45;;;;;;;9.07;3.92;;;;;;;9.37;60.54;96528.78;5109935;28;20048;-66
2021/04/01 03:27:11;;;;;;;9.82;4.20;;;;;;;9.35;60.34;96531.81;5109892;28;20036;-66
2021/04/01 03:29:37;;;;;;;13.30;4.07;;;;;;;9.35;60.62;96534.53;5110384;28;20110;-66
2021/04/01 03:32:04;;;;;;;8.70;3.95;;;;;;;9.36;61.03;96538.03;5109525;28;20039;-67
2021/04/01 03:34:30;;;;;;;8.48;4.03;;;;;;;9.33;60.31;96528.56;5110653;28;20040;-66
2021/04/01 03:36:56;;;;;;;9.90;3.80;;;;;;;9.32;60.39;96537.03;5109375;28;20051;-66
2021/04/01 03:39:22;;;;;;;12.98;4.00;;;;;;;9.28;60.31;96531.41;5110176;28;20046;-66
2021/04/01 03:41:49;;;;;;;13.23;4.22;;;;;;;9.27;60.58;96529.81;5109738;28;20044;-66
2021/04/01 03:44:15;;;;;;;9.18;3.80;;;;;;;9.27;60.43;96531.72;5110274;28;20044;-66
2021/04/01 03:46:41;;;;;;;9.02;4.07;;;;;;;9.27;60.71;96529.00;5105909;28;20040;-66
2021/04/01 03:49:07;;;;;;;14.02;4.88;;;;;;;9.30;60.12;96528.41;5108493;28;20118;-67
2021/04/01 03:51:33;;;;;;;8.80;4.28;;;;;;;9.31;60.04;96532.72;5126638;28;20433;-66
2021/04/01 03:54:00;;;;;;;7.28;3.90;;;;;;;9.34;59.43;96530.22;5110075;28;20047;-66
2021/04/01 03:56:25;;;;;;;12.68;3.80;;;;;;;9.37;59.35;96523.34;5109756;28;20040;-66
2021/04/01 03:58:58;;;;;;;8.40;3.80;;;;;;;9.43;59.30;96527.56;5109158;28;20040;-66
2021/04/01 04:04:22;;;;;;;9.57;3.40;;;;;;;9.54;58.26;96523.47;5109000;28;20042;-66
2021/04/01 04:09:54;;;;;;;13.43;3.88;;;;;;;9.70;57.49;96521.22;5109853;28;20135;-66
2021/04/01 04:12:28;;;;;;;9.25;3.55;;;;;;;9.78;57.56;96520.50;5108865;28;20044;-66
2021/04/01 04:15:05;;;;;;;9.15;3.67;;;;;;;9.86;57.41;96513.50;5110537;28;20036;-66
2021/04/01 04:17:31;;;;;;;7.90;3.35;;;;;;;9.90;56.80;96518.00;5108489;28;20048;-66
2021/04/01 04:19:57;;;;;;;12.07;3.75;;;;;;;9.94;56.16;96518.22;5110290;28;20043;-67
2021/04/01 04:22:24;;;;;;;10.15;3.97;;;;;;;9.98;56.38;96508.31;5109077;28;20131;-66
2021/04/01 04:24:50;;;;;;;7.95;3.30;;;;;;;10.00;55.63;96514.25;5133215;27;20118;-66
2021/04/01 04:27:31;;;;;;;10.25;3.78;;;;;;;10.03;55.73;96508.19;5128738;27;20565;-66
2021/04/01 04:30:00;;;;;;;11.63;3.28;;;;;;;10.06;55.77;96507.56;5113271;28;20615;-66
2021/04/01 04:32:26;;;;;;;9.07;3.58;;;;;;;10.07;55.39;96508.34;5111829;28;20593;-66
2021/04/01 04:34:52;;;;;;;9.38;3.42;;;;;;;10.12;55.75;96510.94;5112536;28;20069;-66
2021/04/01 04:37:18;;;;;;;12.10;3.70;;;;;;;10.15;55.19;96504.91;5113590;28;20051;-66
2021/04/01 04:39:44;;;;;;;9.70;3.40;;;;;;;10.17;55.49;96518.97;5112695;28;20498;-66
2021/04/01 04:42:10;;;;;;;10.50;3.53;;;;;;;10.12;54.78;96517.19;5113226;28;20047;-66
2021/04/01 04:44:36;;;;;;;9.30;3.47;;;;;;;10.10;54.90;96515.91;5112959;28;20044;-66
2021/04/01 04:47:03;;;;;;;6.45;3.17;;;;;;;10.11;54.87;96521.03;5112427;28;20557;-67
2021/04/01 04:49:29;;;;;;;11.70;3.95;;;;;;;10.09;54.73;96519.75;5133661;27;20039;-66
2021/04/01 04:51:55;;;;;;;13.35;3.65;;;;;;;10.06;54.96;96517.63;5126876;27;20067;-66
2021/04/01 04:54:21;;;;;;;7.20;3.20;;;;;;;10.04;54.77;96531.56;5133488;27;20047;-66
2021/04/01 04:56:48;;;;;;;10.85;3.63;;;;;;;10.08;54.73;96526.31;5132406;27;20039;-66
2021/04/01 04:59:20;;;;;;;9.15;3.53;;;;;;;10.08;55.11;96521.66;5112855;28;20067;-66
2021/04/01 05:04:40;;;;;;;11.57;3.72;;;;;;;10.10;55.99;96522.16;5112947;28;20127;-66
2021/04/01 05:07:06;;;;;;;9.52;3.70;;;;;;;10.11;55.79;96526.47;5112444;28;20046;-66
2021/04/01 05:09:32;;;;;;;8.88;3.65;;;;;;;10.10;56.35;96514.00;5112762;28;20047;-66
2021/04/01 05:11:58;;;;;;;9.02;3.30;;;;;;;10.11;55.29;96521.03;5112979;28;20040;-66
2021/04/01 05:14:24;;;;;;;7.50;3.53;;;;;;;10.11;55.99;96531.91;5111878;28;20047;-66
2021/04/01 05:16:49;;;;;;;8.90;3.10;;;;;;;10.11;56.17;96528.41;5113063;28;20054;-66
2021/04/01 05:19:17;;;;;;;11.52;3.28;;;;;;;10.10;55.66;96533.03;5110780;28;20078;-66
2021/04/01 05:21:48;;;;;;;9.50;3.88;;;;;;;10.11;55.70;96540.06;5113187;28;20048;-66
2021/04/01 05:24:17;;;;;;;9.35;3.63;;;;;;;10.10;56.63;96530.31;5111552;28;20039;-66
2021/04/01 05:27:07;;;;;;;7.43;3.28;;;;;;;10.09;57.05;96536.88;5133001;27;20039;-66
2021/04/01 05:29:35;;;;;;;7.45;4.05;;;;;;;10.08;56.68;96538.00;5112215;28;20043;-66
2021/04/01 05:32:03;;;;;;;10.30;4.10;;;;;;;10.08;56.72;96542.63;5111761;28;20055;-68
2021/04/01 05:34:29;;;;;;;13.55;4.18;;;;;;;10.06;57.35;96540.19;5112506;28;20506;-66
2021/04/01 05:36:57;;;;;;;12.63;4.20;;;;;;;10.06;57.58;96544.84;5111811;28;20047;-66
2021/04/01 05:39:27;;;;;;;12.65;4.03;;;;;;;10.06;57.47;96533.97;5112242;28;20513;-66
2021/04/01 05:41:53;;;;;;;11.82;4.35;;;;;;;10.06;57.48;96540.19;5111575;28;20048;-66
2021/04/01 05:44:23;;;;;;;13.15;4.13;;;;;;;10.09;57.80;96539.59;5112209;28;20058;-66
2021/04/01 05:47:02;;;;;;;15.63;4.25;;;;;;;10.11;58.26;96539.28;5111497;28;20062;-66
2021/04/01 05:49:44;;;;;;;20.52;4.80;;;;;;;10.15;57.93;96537.56;5091549;28;20040;-66
2021/04/01 05:55:42;;;;;;;8.88;4.38;;;;;;;10.17;58.52;96541.56;5111388;28;20113;-66
2021/04/01 05:58:41;;;;;;;15.93;4.68;;;;;;;10.23;58.77;96544.16;5110858;28;20093;-66
2021/04/01 06:01:29;;;;;;;7.75;3.85;;;;;;;10.23;58.50;96544.16;5111419;28;20542;-66
2021/04/01 06:04:04;;;;;;;12.43;5.63;;;;;;;10.27;58.93;96545.16;5110453;28;20036;-66
2021/04/01 06:06:37;;;;;;;10.88;3.88;;;;;;;10.31;59.19;96540.72;5112292;28;20635;-66
2021/04/01 06:09:05;;;;;;;10.10;4.00;;;;;;;10.38;58.08;96547.31;5110983;28;20126;-66
2021/04/01 06:11:32;;;;;;;11.60;3.83;;;;;;;10.45;56.86;96549.63;5111956;28;20047;-66
2021/04/01 06:14:10;;;;;;;9.00;3.80;;;;;;;10.52;56.16;96547.25;5111272;28;20426;-66
2021/04/01 06:16:38;;;;;;;12.65;4.32;;;;;;;10.60;56.41;96546.50;5111117;28;20053;-66
2021/04/01 06:19:06;;;;;;;9.77;3.80;;;;;;;10.67;54.83;96549.56;5110856;28;20414;-66
2021/04/01 06:21:39;;;;;;;10.85;3.70;;;;;;;10.76;54.53;96546.09;5110778;28;20051;-69
2021/04/01 06:24:20;;;;;;;13.98;3.85;;;;;;;10.83;54.00;96552.66;5112313;27;20040;-68
2021/04/01 06:26:50;;;;;;;9.50;3.50;;;;;;;10.90;53.86;96557.66;5108722;28;20051;-69
2021/04/01 06:29:18;;;;;;;11.30;3.78;;;;;;;10.89;53.91;96556.06;5088021;28;20067;-69
2021/04/01 06:31:46;;;;;;;14.93;3.35;;;;;;;10.92;53.56;96566.34;5100601;28;20510;-69
2021/04/01 06:34:13;;;;;;;10.13;3.33;;;;;;;10.93;53.51;96554.31;5107685;28;20134;-70
2021/04/01 06:36:48;;;;;;;10.98;2.78;;;;;;;11.10;52.94;96556.28;5108557;28;20054;-69
2021/04/01 06:39:18;;;;;;;11.02;3.20;;;;;;;11.09;52.65;96558.22;5107470;28;20552;-69
2021/04/01 06:41:45;;;;;;;14.10;3.65;;;;;;;11.12;52.16;96554.03;5108857;28;20044;-70
2021/04/01 06:44:27;;;;;;;7.53;3.38;;;;;;;11.21;52.02;96561.13;5089249;28;20519;-70
2021/04/01 06:47:03;;;;;;;10.32;3.28;;;;;;;11.30;52.38;96555.69;5107901;28;20457;-70
2021/04/01 06:52:33;;;;;;;9.82;2.88;;;;;;;11.63;52.09;96564.25;5090960;28;20052;-70
2021/04/01 06:55:08;;;;;;;9.63;3.60;;;;;;;11.81;52.13;96562.34;5108570;28;20460;-70
2021/04/01 06:57:49;;;;;;;17.50;3.50;;;;;;;11.95;52.12;96565.75;5108632;28;20042;-70
2021/04/01 07:03:09;;;;;;;9.95;3.38;;;;;;;12.23;52.35;96549.03;5103215;28;20172;-71
2021/04/01 07:05:45;;;;;;;9.07;3.50;;;;;;;12.38;51.61;96555.91;5110659;28;20120;-69
2021/04/01 07:08:12;;;;;;;10.65;3.78;;;;;;;12.52;51.51;96551.03;5110935;28;20039;-70
2021/04/01 07:10:46;;;;;;;12.75;3.60;;;;;;;12.58;51.18;96555.22;5110440;28;20134;-70
2021/04/01 07:13:17;;;;;;;12.25;3.75;;;;;;;12.78;52.05;96559.16;5110780;28;20039;-70
2021/04/01 07:15:45;;;;;;;17.60;3.85;;;;;;;13.02;51.45;96553.13;5110218;28;20039;-70
2021/04/01 07:18:27;;;;;;;11.15;3.40;;;;;;;13.08;49.81;96557.28;5110269;28;20142;-70
2021/04/01 07:23:59;;;;;;;14.80;3.88;;;;;;;14.16;47.65;96554.00;5065902;28;20414;-71
2021/04/01 07:35:02;;;;;;;15.18;3.85;;;;;;;17.45;39.95;96552.56;5090603;28;20078;-70
2021/04/01 07:48:46;;;;;;;;;;;;;;;19.29;35.20;96547.56;5108437;28;20102;-71
2021/04/01 07:51:26;;;;;;;12.60;4.45;;;;;;;19.14;34.67;96557.56;5109177;28;20366;-70
2021/04/01 07:53:53;;;;;;;17.25;4.63;;;;;;;19.30;33.42;96551.91;5131020;28;20046;-71
2021/04/01 07:56:27;;;;;;;11.23;4.57;;;;;;;19.30;32.54;96546.41;5130334;28;20035;-71
2021/04/01 07:59:17;;;;;;;19.58;4.78;;;;;;;19.50;32.65;96542.38;5113669;28;20067;-70
2021/04/01 08:01:57;;;;;;;10.13;4.40;;;;;;;19.21;33.52;96545.84;5114761;28;20082;-70
2021/04/01 08:04:24;;;;;;;13.30;4.70;;;;;;;19.08;34.42;96552.75;5113326;28;20130;-70
2021/04/01 08:06:50;;;;;;;14.90;4.95;;;;;;;19.21;34.49;96554.13;5114814;28;20043;-71
2021/04/01 08:09:21;;;;;;;13.15;4.30;;;;;;;19.01;34.20;96548.69;5113102;28;20052;-69
2021/04/01 08:11:52;;;;;;;19.00;4.95;;;;;;;19.05;34.51;96543.22;5114095;28;20046;-69
2021/04/01 08:14:30;;;;;;;15.75;4.65;;;;;;;18.99;34.92;96547.47;5113857;28;20054;-71
2021/04/01 08:17:04;;;;;;;19.58;5.25;;;;;;;19.12;34.85;96548.09;5113427;28;20046;-70
2021/04/01 08:19:34;;;;;;;10.93;4.70;;;;;;;19.57;34.66;96541.69;5093851;28;20056;-70
2021/04/01 08:22:03;;;;;;;15.52;5.28;;;;;;;19.91;33.69;96542.63;5100259;28;20040;-71
2021/04/01 08:24:34;;;;;;;18.90;5.20;;;;;;;20.41;32.43;96540.50;5114103;28;20117;-70
2021/04/01 08:27:24;;;;;;;14.05;5.25;;;;;;;20.50;31.61;96538.25;5113607;28;20036;-70
2021/04/01 08:32:59;;;;;;;13.32;5.20;;;;;;;20.97;30.21;96533.97;5114271;28;20544;-69
2021/04/01 08:35:26;;;;;;;16.98;5.40;;;;;;;20.92;31.83;96526.03;5112799;28;20567;-70
2021/04/01 08:38:06;;;;;;;14.13;5.30;;;;;;;21.71;30.40;96527.47;5114183;28;20047;-70
2021/04/01 08:40:32;;;;;;;21.08;6.53;;;;;;;21.62;29.02;96522.28;5113073;28;20437;-71
2021/04/01 08:43:42;;;;;;;15.10;6.30;;;;;;;21.67;30.43;96525.88;5113612;28;20043;-71
2021/04/01 08:46:33;;;;;;;14.13;6.47;;;;;;;21.94;28.84;96520.88;5113641;28;20035;-71
2021/04/01 08:49:02;;;;;;;23.40;7.47;;;;;;;21.82;28.51;96516.44;5109750;28;20046;-71
2021/04/01 08:52:23;;;;;;;16.85;6.60;;;;;;;22.08;28.13;96509.84;5113651;28;20108;-71
2021/04/01 08:55:02;;;;;;;14.52;6.97;;;;;;;22.43;27.43;96506.44;5030569;28;20052;-71
2021/04/01 08:57:32;;;;;;;21.60;7.55;;;;;;;22.26;27.16;96501.63;5112292;28;20047;-70
2021/04/01 09:00:05;;;;;;;17.35;7.72;;;;;;;22.23;28.30;96505.19;5113661;28;20039;-70
2021/04/01 09:02:33;;;;;;;13.68;7.40;;;;;;;22.58;27.68;96502.53;5112020;28;20395;-70
2021/04/01 09:05:00;;;;;;;20.00;7.78;;;;;;;22.88;26.86;96504.22;5113386;28;20067;-70
2021/04/01 09:07:29;;;;;;;21.23;7.75;;;;;;;22.75;26.89;96505.72;5112661;28;20072;-70
2021/04/01 09:10:02;;;;;;;16.80;7.43;;;;;;;23.00;27.87;96500.25;5112319;28;20039;-70
2021/04/01 09:12:34;;;;;;;20.33;7.82;;;;;;;23.06;26.73;96504.22;5111450;28;20679;-70
2021/04/01 09:15:03;;;;;;;20.90;8.25;;;;;;;23.16;26.05;96504.22;5111027;28;20043;-70
2021/04/01 09:17:31;;;;;;;22.40;8.15;;;;;;;23.56;26.89;96496.66;5112516;28;20049;-70
2021/04/01 09:19:58;;;;;;;22.20;8.13;;;;;;;23.69;25.75;96491.50;5132666;27;20055;-70
2021/04/01 09:22:26;;;;;;;22.17;8.93;;;;;;;23.80;25.77;96497.03;5122384;27;20066;-71
2021/04/01 09:24:58;;;;;;;20.33;9.02;;;;;;;23.80;25.36;96497.03;5111944;28;20055;-70
2021/04/01 09:27:24;;;;;;;18.92;9.13;;;;;;;24.25;23.90;96491.72;5112248;28;20560;-70
2021/04/01 09:30:02;;;;;;;21.67;7.35;;;;;;;24.57;24.65;96486.81;5111734;28;20039;-70
2021/04/01 09:32:29;;;;;;;21.17;7.82;;;;;;;25.35;25.17;96488.28;5109062;28;20557;-70
2021/04/01 09:34:59;;;;;;;20.88;8.40;;;;;;;25.22;23.91;96479.66;5107677;28;20043;-71
2021/04/01 09:37:25;;;;;;;18.65;8.27;;;;;;;25.14;24.28;96478.09;5106972;28;20043;-69
2021/04/01 09:39:54;;;;;;;18.23;8.30;;;;;;;25.45;22.89;96492.19;5109938;28;20514;-70
2021/04/01 09:42:20;;;;;;;18.48;8.07;;;;;;;24.84;22.84;96475.13;5108131;28;20047;-70
2021/04/01 09:44:51;;;;;;;16.90;7.85;;;;;;;24.41;24.00;96480.94;5109677;28;20047;-70
2021/04/01 09:47:34;;;;;;;17.52;7.38;;;;;;;23.95;25.08;96479.13;5107832;28;20055;-69
2021/04/01 09:50:05;;;;;;;19.58;7.45;;;;;;;24.06;24.96;96477.09;5129484;27;20069;-69
2021/04/01 09:52:31;;;;;;;17.17;7.13;;;;;;;24.36;25.42;96479.38;5118095;27;20047;-70
2021/04/01 09:55:00;;;;;;;14.77;7.35;;;;;;;24.54;26.39;96476.50;5108683;28;20051;-70
2021/04/01 09:57:42;;;;;;;14.40;7.68;;;;;;;24.69;23.87;96480.81;5109089;28;20044;-71
2021/04/01 10:00:17;;;;;;;16.08;7.80;;;;;;;25.01;24.47;96474.22;5108384;28;20044;-71
2021/04/01 10:03:04;;;;;;;17.27;6.90;;;;;;;25.09;23.02;96470.19;5109625;28;20124;-70
2021/04/01 10:05:39;;;;;;;17.13;6.75;;;;;;;25.35;23.79;96465.19;5108488;28;20104;-70
2021/04/01 10:08:08;;;;;;;18.70;6.72;;;;;;;25.35;23.43;96465.19;5108255;28;20040;-71
2021/04/01 10:10:39;;;;;;;17.52;7.22;;;;;;;25.41;24.01;96457.97;5108999;28;20498;-72
2021/04/01 10:13:16;;;;;;;13.02;7.05;;;;;;;25.46;24.31;96460.31;5108861;28;20059;-72
2021/04/01 10:15:43;;;;;;;16.25;7.47;;;;;;;25.59;23.47;96464.16;5109561;28;20047;-70
2021/04/01 10:18:11;;;;;;;23.45;7.40;;;;;;;25.62;24.43;96452.16;5108120;28;20046;-70
2021/04/01 10:20:38;;;;;;;14.25;8.02;;;;;;;25.38;24.48;96444.88;5128388;27;20081;-70
2021/04/01 10:23:07;;;;;;;16.27;7.45;;;;;;;25.08;23.48;96442.75;5111397;27;20035;-70
2021/04/01 10:25:47;;;;;;;18.70;8.18;;;;;;;25.10;24.51;96443.91;5108103;28;20126;-70
2021/04/01 10:28:32;;;;;;;15.18;6.82;;;;;;;25.29;25.47;96436.19;5108109;28;20071;-70
2021/04/01 10:31:08;;;;;;;14.70;7.53;;;;;;;25.21;24.00;96427.91;5107685;28;20035;-70
2021/04/01 10:33:38;;;;;;;18.77;8.02;;;;;;;25.00;24.72;96428.03;5108583;28;20043;-70
2021/04/01 10:36:08;;;;;;;18.05;7.05;;;;;;;24.93;24.20;96428.09;5107133;28;20043;-71
2021/04/01 10:38:36;;;;;;;14.63;7.05;;;;;;;24.45;24.74;96420.50;5108055;28;20048;-69
2021/04/01 10:41:10;;;;;;;15.90;7.25;;;;;;;24.36;25.43;96422.94;5107388;28;20514;-71
2021/04/01 10:43:40;;;;;;;15.48;6.40;;;;;;;24.40;25.42;96423.69;5109055;28;20040;-70
2021/04/01 10:46:14;;;;;;;18.90;7.43;;;;;;;24.28;25.07;96421.38;5111471;28;20419;-73
2021/04/01 10:48:46;;;;;;;16.33;6.97;;;;;;;24.24;25.36;96415.03;5124168;27;20043;-74
2021/04/01 10:51:13;;;;;;;17.45;7.32;;;;;;;24.32;25.87;96408.19;5131616;27;20047;-74
2021/04/01 10:53:41;;;;;;;18.50;8.13;;;;;;;24.28;26.78;96399.09;5131331;27;20046;-74
2021/04/01 10:56:09;;;;;;;16.50;8.45;;;;;;;24.16;26.03;96395.56;5131651;27;20046;-74
2021/04/01 10:58:46;;;;;;;17.23;7.78;;;;;;;24.35;26.81;96397.09;5114810;27;20098;-73
2021/04/01 11:01:13;;;;;;;14.50;7.25;;;;;;;24.49;25.30;96392.66;5110485;28;20048;-77
2021/04/01 11:03:45;;;;;;;13.35;7.15;;;;;;;24.44;25.15;96388.28;5111141;28;20406;-75
2021/04/01 11:06:13;;;;;;;20.25;7.00;;;;;;;24.59;25.55;96387.00;5110038;28;20097;-75
2021/04/01 11:08:41;;;;;;;20.15;7.22;;;;;;;24.61;25.18;96390.16;5111345;28;20054;-74
2021/04/01 11:11:09;;;;;;;15.07;6.82;;;;;;;24.62;24.64;96380.59;5109642;28;20043;-76
2021/04/01 11:13:37;;;;;;;15.27;6.57;;;;;;;24.69;24.61;96386.13;5111340;28;20043;-75
2021/04/01 11:16:06;;;;;;;11.82;5.75;;;;;;;24.79;25.17;96380.84;5109686;28;20040;-76
2021/04/01 11:18:35;;;;;;;14.55;6.32;;;;;;;24.53;23.25;96371.13;5123444;27;20050;-73
2021/04/01 11:21:05;;;;;;;13.23;5.50;;;;;;;24.62;23.53;96377.03;5130384;27;20490;-74
2021/04/01 11:23:34;;;;;;;10.68;6.15;;;;;;;24.82;25.21;96377.25;5111116;28;20051;-75
2021/04/01 11:26:02;;;;;;;14.85;6.00;;;;;;;24.82;25.22;96368.91;5110439;28;20048;-75
2021/04/01 11:28:39;;;;;;;13.43;6.10;;;;;;;24.65;23.87;96371.44;5109271;28;20066;-75
2021/04/01 11:31:06;;;;;;;13.30;5.82;;;;;;;24.71;24.68;96366.22;5110612;28;20122;-73
2021/04/01 11:33:32;;;;;;;11.27;5.97;;;;;;;24.87;23.26;96362.91;5115586;28;20047;-73
2021/04/01 11:36:04;;;;;;;14.07;5.20;;;;;;;24.94;23.58;96362.81;5117921;28;20043;-74
2021/04/01 11:38:40;;;;;;;13.95;6.35;;;;;;;25.15;23.88;96350.72;5116501;28;20043;-74
2021/04/01 11:41:07;;;;;;;8.73;5.18;;;;;;;24.88;22.32;96344.97;5116710;28;20039;-73
2021/04/01 11:43:35;;;;;;;12.88;6.55;;;;;;;24.77;22.33;96352.66;5117248;28;20135;-75
2021/04/01 11:46:12;;;;;;;15.35;5.63;;;;;;;24.99;23.28;96337.31;5116425;28;20063;-74
2021/04/01 11:48:39;;;;;;;16.15;6.45;;;;;;;25.08;24.20;96340.44;5116920;28;20051;-74
2021/04/01 11:51:07;;;;;;;15.35;6.65;;;;;;;25.39;23.11;96340.53;5116014;27;20044;-75
2021/04/01 11:53:35;;;;;;;18.60;6.60;;;;;;;25.38;23.86;96336.16;5117653;28;20048;-74
2021/04/01 11:56:01;;;;;;;14.00;5.80;;;;;;;25.52;22.17;96330.41;5136570;27;20046;-75
2021/04/01 11:58:31;;;;;;;11.55;6.38;;;;;;;25.80;23.03;96328.50;5123035;27;20096;-75
2021/04/01 12:01:03;;;;;;;11.45;6.20;;;;;;;25.92;22.25;96331.53;5116655;28;20586;-74
2021/04/01 12:03:35;;;;;;;14.13;6.13;;;;;;;26.26;22.22;96328.66;5116880;28;20449;-75
2021/04/01 12:06:02;;;;;;;13.48;5.93;;;;;;;26.36;22.13;96320.53;5116427;28;20043;-74
2021/04/01 12:08:28;;;;;;;11.85;6.53;;;;;;;26.36;21.30;96326.09;5116705;28;20047;-75
2021/04/01 12:10:56;;;;;;;14.52;5.80;;;;;;;26.63;21.88;96324.13;5117484;28;20040;-74
2021/04/01 12:13:24;;;;;;;12.95;6.20;;;;;;;26.72;20.22;96315.97;5115652;28;20039;-74
2021/04/01 12:15:50;;;;;;;10.75;6.05;;;;;;;26.67;20.58;96319.25;5117650;28;20036;-74
2021/04/01 12:18:16;;;;;;;13.27;6.68;;;;;;;26.49;21.58;96307.59;5126181;27;20039;-74
2021/04/01 12:20:42;;;;;;;11.60;5.82;;;;;;;26.28;20.99;96301.09;5138152;27;20405;-74
2021/04/01 12:23:09;;;;;;;15.82;6.60;;;;;;;26.19;21.29;96300.03;5120669;27;20036;-73
2021/04/01 12:25:35;;;;;;;13.23;6.57;;;;;;;25.90;21.53;96302.47;5116948;28;20414;-73